createdAt,value
2018-09-15T00:00:57.321Z,1013.44
2018-09-15T00:02:07.268Z,1013.44
2018-09-15T00:03:17.228Z,1013.43
2018-09-15T00:04:27.176Z,1013.4
2018-09-15T00:05:37.125Z,1013.41
2018-09-15T00:06:46.825Z,1013.37
2018-09-15T00:07:56.779Z,1013.34
2018-09-15T00:09:06.469Z,1013.35
2018-09-15T00:10:16.441Z,1013.35
2018-09-15T00:11:25.878Z,1013.32
2018-09-15T00:12:35.587Z,1013.29
2018-09-15T00:13:45.278Z,1013.28
2018-09-15T00:14:55.009Z,1013.27
2018-09-15T00:16:04.954Z,1013.25
2018-09-15T00:17:14.390Z,1013.31
2018-09-15T00:18:24.339Z,1013.32
2018-09-15T00:19:34.295Z,1013.34
2018-09-15T00:20:44.256Z,1013.33
2018-09-15T00:21:53.947Z,1013.34
2018-09-15T00:23:03.996Z,1013.34
2018-09-15T00:24:14.501Z,1013.31
2018-09-15T00:25:24.445Z,1013.3
2018-09-15T00:26:34.425Z,1013.3
2018-09-15T00:27:44.383Z,1013.28
2018-09-15T00:28:54.331Z,1013.28
2018-09-15T00:30:04.032Z,1013.29
2018-09-15T00:31:13.722Z,1013.3
2018-09-15T00:32:23.667Z,1013.28
2018-09-15T00:33:33.656Z,1013.26
2018-09-15T00:34:43.350Z,1013.23
2018-09-15T00:35:53.290Z,1013.23
2018-09-15T00:37:02.983Z,1013.24
2018-09-15T00:38:12.945Z,1013.23
2018-09-15T00:39:22.885Z,1013.24
2018-09-15T00:40:32.314Z,1013.15
2018-09-15T00:41:42.324Z,1013.2
2018-09-15T00:42:52.787Z,1013.2
2018-09-15T00:44:02.730Z,1013.22
2018-09-15T00:45:12.639Z,1013.2
2018-09-15T00:46:22.614Z,1013.19
2018-09-15T00:47:32.557Z,1013.15
2018-09-15T00:48:42.501Z,1013.11
2018-09-15T00:49:52.467Z,1013.12
2018-09-15T00:51:02.425Z,1013.1
2018-09-15T00:52:12.380Z,1013.12
2018-09-15T00:53:22.083Z,1013.12
2018-09-15T00:54:31.771Z,1013.16
2018-09-15T00:55:41.715Z,1013.21
2018-09-15T00:56:51.402Z,1013.17
2018-09-15T00:58:01.093Z,1013.18
2018-09-15T00:59:11.029Z,1013.1
2018-09-15T01:00:20.212Z,1013.1
2018-09-15T01:01:30.177Z,1013.08
2018-09-15T01:02:40.128Z,1013.05
2018-09-15T01:03:49.830Z,1013.02
2018-09-15T01:04:59.771Z,1013.05
2018-09-15T01:06:09.727Z,1013.02
2018-09-15T01:07:19.676Z,1013.03
2018-09-15T01:08:29.632Z,1013.01
2018-09-15T01:09:39.314Z,1012.99
2018-09-15T01:10:49.261Z,1013.04
2018-09-15T01:11:59.208Z,1012.98
2018-09-15T01:13:08.892Z,1013.03
2018-09-15T01:14:19.102Z,1012.98
2018-09-15T01:15:29.253Z,1013.03
2018-09-15T01:16:39.456Z,1013
2018-09-15T01:17:49.404Z,1012.96
2018-09-15T01:18:59.105Z,1012.99
2018-09-15T01:20:09.163Z,1012.96
2018-09-15T01:21:18.951Z,1012.99
2018-09-15T01:22:28.898Z,1012.94
2018-09-15T01:23:38.851Z,1012.96
2018-09-15T01:24:48.543Z,1012.94
2018-09-15T01:25:58.605Z,1012.94
2018-09-15T01:27:08.875Z,1012.86
2018-09-15T01:28:18.839Z,1012.9
2018-09-15T01:29:28.787Z,1012.85
2018-09-15T01:30:38.470Z,1012.85
2018-09-15T01:31:48.169Z,1012.89
2018-09-15T01:32:58.142Z,1012.9
2018-09-15T01:34:07.823Z,1012.92
2018-09-15T01:35:17.771Z,1012.95
2018-09-15T01:36:27.449Z,1012.97
2018-09-15T01:37:37.136Z,1012.92
2018-09-15T01:38:46.816Z,1012.96
2018-09-15T01:39:56.780Z,1012.91
2018-09-15T01:41:06.511Z,1012.95
2018-09-15T01:42:16.453Z,1012.98
2018-09-15T01:43:26.144Z,1013.01
2018-09-15T01:44:35.821Z,1012.99
2018-09-15T01:45:45.564Z,1012.96
2018-09-15T01:46:55.509Z,1012.95
2018-09-15T01:48:05.212Z,1012.97
2018-09-15T01:49:14.896Z,1012.97
2018-09-15T01:50:24.857Z,1012.97
2018-09-15T01:51:34.798Z,1013
2018-09-15T01:52:44.751Z,1013
2018-09-15T01:53:54.699Z,1012.96
2018-09-15T01:55:04.641Z,1012.96
2018-09-15T01:56:14.357Z,1012.94
2018-09-15T01:57:24.389Z,1012.97
2018-09-15T01:58:34.750Z,1012.97
2018-09-15T01:59:44.696Z,1013.07
2018-09-15T02:00:54.644Z,1013.07
2018-09-15T02:02:04.341Z,1013.09
2018-09-15T02:03:13.782Z,1013.09
2018-09-15T02:04:23.726Z,1013.08
2018-09-15T02:05:33.689Z,1013.01
2018-09-15T02:06:43.644Z,1013.04
2018-09-15T02:07:53.615Z,1013.03
2018-09-15T02:09:03.562Z,1012.99
2018-09-15T02:10:13.503Z,1013.01
2018-09-15T02:11:22.935Z,1013.05
2018-09-15T02:12:32.635Z,1013.09
2018-09-15T02:13:42.586Z,1013.14
2018-09-15T02:14:52.272Z,1013.11
2018-09-15T02:16:01.954Z,1013.17
2018-09-15T02:17:11.905Z,1013.14
2018-09-15T02:18:21.849Z,1013.15
2018-09-15T02:19:31.535Z,1013.16
2018-09-15T02:20:41.224Z,1013.17
2018-09-15T02:21:51.166Z,1013.19
2018-09-15T02:23:00.925Z,1013.23
2018-09-15T02:24:11.279Z,1013.23
2018-09-15T02:25:21.235Z,1013.19
2018-09-15T02:26:31.178Z,1013.22
2018-09-15T02:27:40.873Z,1013.23
2018-09-15T02:28:50.635Z,1013.24
2018-09-15T02:30:00.927Z,1013.2
2018-09-15T02:31:10.884Z,1013.19
2018-09-15T02:32:20.899Z,1013.24
2018-09-15T02:33:30.854Z,1013.18
2018-09-15T02:34:40.829Z,1013.19
2018-09-15T02:35:50.784Z,1013.18
2018-09-15T02:37:00.736Z,1013.14
2018-09-15T02:38:10.429Z,1013.22
2018-09-15T02:39:20.118Z,1013.15
2018-09-15T02:40:29.786Z,1013.15
2018-09-15T02:41:39.473Z,1013.18
2018-09-15T02:42:49.423Z,1013.18
2018-09-15T02:43:59.367Z,1013.13
2018-09-15T02:45:09.327Z,1013.13
2018-09-15T02:46:19.279Z,1013.13
2018-09-15T02:47:29.214Z,1013.13
2018-09-15T02:48:38.909Z,1013.11
2018-09-15T02:49:48.852Z,1013.16
2018-09-15T02:50:58.800Z,1013.18
2018-09-15T02:52:08.761Z,1013.15
2018-09-15T02:53:18.721Z,1013.15
2018-09-15T02:54:28.415Z,1013.23
2018-09-15T02:55:38.480Z,1013.17
2018-09-15T02:56:48.454Z,1013.2
2018-09-15T02:57:58.396Z,1013.18
2018-09-15T02:59:07.848Z,1013.19
2018-09-15T03:00:17.800Z,1013.17
2018-09-15T03:01:27.234Z,1013.18
2018-09-15T03:02:37.183Z,1013.19
2018-09-15T03:03:47.133Z,1013.18
2018-09-15T03:04:57.077Z,1013.18
2018-09-15T03:06:06.767Z,1013.21
2018-09-15T03:07:16.722Z,1013.15
2018-09-15T03:08:26.683Z,1013.13
2018-09-15T03:09:36.703Z,1013.19
2018-09-15T03:10:46.696Z,1013.19
2018-09-15T03:11:57.261Z,1013.18
2018-09-15T03:13:07.211Z,1013.2
2018-09-15T03:14:17.165Z,1013.18
2018-09-15T03:15:27.135Z,1013.2
2018-09-15T03:16:37.107Z,1013.24
2018-09-15T03:17:47.066Z,1013.23
2018-09-15T03:18:56.755Z,1013.27
2018-09-15T03:20:06.697Z,1013.27
2018-09-15T03:21:16.664Z,1013.22
2018-09-15T03:22:26.604Z,1013.29
2018-09-15T03:23:36.300Z,1013.28
2018-09-15T03:24:45.978Z,1013.33
2018-09-15T03:25:55.916Z,1013.29
2018-09-15T03:27:05.599Z,1013.3
2018-09-15T03:28:15.546Z,1013.33
2018-09-15T03:29:25.481Z,1013.29
2018-09-15T03:30:35.439Z,1013.3
2018-09-15T03:31:45.472Z,1013.28
2018-09-15T03:32:55.206Z,1013.33
2018-09-15T03:34:04.927Z,1013.28
2018-09-15T03:35:14.857Z,1013.35
2018-09-15T03:36:24.541Z,1013.31
2018-09-15T03:37:34.477Z,1013.35
2018-09-15T03:38:44.174Z,1013.32
2018-09-15T03:39:54.129Z,1013.34
2018-09-15T03:41:03.834Z,1013.37
2018-09-15T03:42:13.521Z,1013.34
2018-09-15T03:43:23.476Z,1013.32
2018-09-15T03:44:33.446Z,1013.32
2018-09-15T03:45:43.414Z,1013.32
2018-09-15T03:46:53.089Z,1013.33
2018-09-15T03:48:03.022Z,1013.27
2018-09-15T03:49:12.711Z,1013.25
2018-09-15T03:50:22.663Z,1013.37
2018-09-15T03:51:32.606Z,1013.4
2018-09-15T03:52:42.572Z,1013.36
2018-09-15T03:53:52.541Z,1013.44
2018-09-15T03:55:02.487Z,1013.42
2018-09-15T03:56:12.426Z,1013.43
2018-09-15T03:57:22.374Z,1013.43
2018-09-15T03:58:32.054Z,1013.43
2018-09-15T03:59:41.751Z,1013.52
2018-09-15T04:00:51.773Z,1013.53
2018-09-15T04:02:01.747Z,1013.45
2018-09-15T04:03:11.449Z,1013.49
2018-09-15T04:04:21.391Z,1013.54
2018-09-15T04:05:31.339Z,1013.51
2018-09-15T04:06:41.026Z,1013.54
2018-09-15T04:07:50.720Z,1013.52
2018-09-15T04:09:00.677Z,1013.52
2018-09-15T04:10:10.616Z,1013.48
2018-09-15T04:11:20.568Z,1013.56
2018-09-15T04:12:30.312Z,1013.52
2018-09-15T04:13:39.999Z,1013.54
2018-09-15T04:14:49.959Z,1013.56
2018-09-15T04:15:59.647Z,1013.47
2018-09-15T04:17:09.596Z,1013.55
2018-09-15T04:18:19.534Z,1013.55
2018-09-15T04:19:29.499Z,1013.58
2018-09-15T04:20:39.449Z,1013.54
2018-09-15T04:21:48.886Z,1013.57
2018-09-15T04:22:58.836Z,1013.56
2018-09-15T04:24:08.540Z,1013.54
2018-09-15T04:25:17.989Z,1013.57
2018-09-15T04:26:27.958Z,1013.73
2018-09-15T04:27:37.901Z,1013.69
2018-09-15T04:28:47.857Z,1013.66
2018-09-15T04:29:57.823Z,1013.66
2018-09-15T04:31:07.778Z,1013.79
2018-09-15T04:32:17.491Z,1013.81
2018-09-15T04:33:27.425Z,1013.85
2018-09-15T04:34:37.110Z,1013.86
2018-09-15T04:35:47.058Z,1013.86
2018-09-15T04:36:57.016Z,1013.87
2018-09-15T04:38:06.788Z,1013.82
2018-09-15T04:39:16.751Z,1013.86
2018-09-15T04:40:26.704Z,1013.79
2018-09-15T04:41:36.746Z,1013.81
2018-09-15T04:42:47.093Z,1013.78
2018-09-15T04:43:57.045Z,1013.78
2018-09-15T04:45:06.988Z,1013.81
2018-09-15T04:46:16.955Z,1013.8
2018-09-15T04:47:26.384Z,1013.81
2018-09-15T04:48:36.344Z,1013.84
2018-09-15T04:49:46.297Z,1013.91
2018-09-15T04:50:56.246Z,1013.88
2018-09-15T04:52:05.949Z,1013.86
2018-09-15T04:53:15.641Z,1013.86
2018-09-15T04:54:25.608Z,1013.91
2018-09-15T04:55:35.551Z,1013.99
2018-09-15T04:56:45.279Z,1013.91
2018-09-15T04:57:55.229Z,1013.93
2018-09-15T04:59:05.178Z,1013.93
2018-09-15T05:00:15.128Z,1013.94
2018-09-15T05:01:25.078Z,1013.96
2018-09-15T05:02:35.031Z,1014.01
2018-09-15T05:03:44.978Z,1013.99
2018-09-15T05:04:54.931Z,1013.98
2018-09-15T05:06:04.642Z,1014.08
2018-09-15T05:07:14.602Z,1014.11
2018-09-15T05:08:24.555Z,1014.05
2018-09-15T05:09:33.981Z,1014.05
2018-09-15T05:10:43.925Z,1014.1
2018-09-15T05:11:53.862Z,1014.04
2018-09-15T05:13:03.806Z,1014.09
2018-09-15T05:14:13.765Z,1014.12
2018-09-15T05:15:23.472Z,1014.12
2018-09-15T05:16:33.165Z,1014.11
2018-09-15T05:17:43.152Z,1014.17
2018-09-15T05:18:53.126Z,1014.12
2018-09-15T05:20:03.093Z,1014.09
2018-09-15T05:21:13.055Z,1014.16
2018-09-15T05:22:22.745Z,1014.15
2018-09-15T05:23:32.439Z,1014.2
2018-09-15T05:24:42.149Z,1014.16
2018-09-15T05:25:52.124Z,1014.21
2018-09-15T05:27:01.817Z,1014.23
2018-09-15T05:28:11.763Z,1014.27
2018-09-15T05:29:21.709Z,1014.27
2018-09-15T05:30:31.645Z,1014.25
2018-09-15T05:31:41.978Z,1014.26
2018-09-15T05:32:51.634Z,1014.21
2018-09-15T05:34:01.325Z,1014.29
2018-09-15T05:35:11.017Z,1014.25
2018-09-15T05:36:20.717Z,1014.32
2018-09-15T05:37:30.408Z,1014.32
2018-09-15T05:38:40.118Z,1014.27
2018-09-15T05:39:50.112Z,1014.3
2018-09-15T05:40:59.780Z,1014.32
2018-09-15T05:42:09.737Z,1014.33
2018-09-15T05:43:19.687Z,1014.35
2018-09-15T05:44:29.641Z,1014.42
2018-09-15T05:45:39.587Z,1014.39
2018-09-15T05:46:49.261Z,1014.39
2018-09-15T05:47:59.214Z,1014.42
2018-09-15T05:49:08.902Z,1014.42
2018-09-15T05:50:18.881Z,1014.45
2018-09-15T05:51:28.845Z,1014.52
2018-09-15T05:52:38.815Z,1014.47
2018-09-15T05:53:48.773Z,1014.41
2018-09-15T05:54:58.479Z,1014.44
2018-09-15T05:56:08.219Z,1014.38
2018-09-15T05:57:18.517Z,1014.4
2018-09-15T05:58:28.258Z,1014.4
2018-09-15T05:59:38.230Z,1014.4
2018-09-15T06:00:48.180Z,1014.47
2018-09-15T06:01:58.132Z,1014.49
2018-09-15T06:03:08.099Z,1014.51
2018-09-15T06:04:18.131Z,1014.57
2018-09-15T06:05:27.816Z,1014.59
2018-09-15T06:06:37.835Z,1014.59
2018-09-15T06:07:48.143Z,1014.62
2018-09-15T06:08:58.247Z,1014.66
2018-09-15T06:10:08.205Z,1014.71
2018-09-15T06:11:17.905Z,1014.67
2018-09-15T06:12:27.598Z,1014.71
2018-09-15T06:13:37.603Z,1014.7
2018-09-15T06:14:47.873Z,1014.72
2018-09-15T06:15:57.822Z,1014.76
2018-09-15T06:17:07.769Z,1014.71
2018-09-15T06:18:17.455Z,1014.76
2018-09-15T06:19:27.419Z,1014.82
2018-09-15T06:20:37.383Z,1014.82
2018-09-15T06:21:47.324Z,1014.86
2018-09-15T06:22:57.286Z,1014.87
2018-09-15T06:24:06.975Z,1014.92
2018-09-15T06:25:16.942Z,1014.87
2018-09-15T06:26:26.673Z,1014.92
2018-09-15T06:27:36.622Z,1014.9
2018-09-15T06:28:46.669Z,1014.91
2018-09-15T06:29:56.629Z,1014.99
2018-09-15T06:31:06.666Z,1015
2018-09-15T06:32:16.621Z,1014.99
2018-09-15T06:33:26.570Z,1014.95
2018-09-15T06:34:36.000Z,1014.94
2018-09-15T06:35:45.961Z,1015
2018-09-15T06:36:55.912Z,1014.92
2018-09-15T06:38:05.858Z,1015.02
2018-09-15T06:39:15.828Z,1014.96
2018-09-15T06:40:25.710Z,1014.94
2018-09-15T06:41:35.675Z,1015.07
2018-09-15T06:42:45.643Z,1015.01
2018-09-15T06:43:55.329Z,1014.99
2018-09-15T06:45:05.278Z,1015.03
2018-09-15T06:46:14.977Z,1014.99
2018-09-15T06:47:24.931Z,1015.05
2018-09-15T06:48:34.867Z,1015.05
2018-09-15T06:49:44.580Z,1015.04
2018-09-15T06:50:54.538Z,1015.05
2018-09-15T06:52:04.235Z,1015.09
2018-09-15T06:53:14.198Z,1015.19
2018-09-15T06:54:23.905Z,1015
2018-09-15T06:55:33.868Z,1015.09
2018-09-15T06:56:43.813Z,1015.13
2018-09-15T06:57:53.777Z,1015.09
2018-09-15T06:59:03.490Z,1015.09
2018-09-15T07:00:13.466Z,1015.13
2018-09-15T07:01:23.439Z,1015.13
2018-09-15T07:02:33.416Z,1015.09
2018-09-15T07:03:43.377Z,1015.2
2018-09-15T07:04:53.088Z,1015.2
2018-09-15T07:06:03.046Z,1015.14
2018-09-15T07:07:12.994Z,1015.16
2018-09-15T07:08:22.953Z,1015.14
2018-09-15T07:09:32.952Z,1015.14
2018-09-15T07:10:42.643Z,1015.11
2018-09-15T07:11:52.594Z,1015.19
2018-09-15T07:13:02.670Z,1015.17
2018-09-15T07:14:12.874Z,1015.14
2018-09-15T07:15:22.833Z,1015.17
2018-09-15T07:16:32.283Z,1015.21
2018-09-15T07:17:42.244Z,1015.24
2018-09-15T07:18:52.190Z,1015.24
2018-09-15T07:20:01.915Z,1015.27
2018-09-15T07:21:11.737Z,1015.23
2018-09-15T07:22:21.677Z,1015.22
2018-09-15T07:23:31.637Z,1015.24
2018-09-15T07:24:41.601Z,1015.29
2018-09-15T07:25:51.606Z,1015.23
2018-09-15T07:27:02.081Z,1015.23
2018-09-15T07:28:11.785Z,1015.28
2018-09-15T07:29:21.484Z,1015.3
2018-09-15T07:30:31.433Z,1015.32
2018-09-15T07:31:41.434Z,1015.16
2018-09-15T07:32:51.366Z,1015.26
2018-09-15T07:34:01.316Z,1015.3
2018-09-15T07:35:11.267Z,1015.35
2018-09-15T07:36:21.215Z,1015.27
2018-09-15T07:37:30.974Z,1015.28
2018-09-15T07:38:41.336Z,1015.3
2018-09-15T07:39:51.288Z,1015.38
2018-09-15T07:41:01.238Z,1015.39
2018-09-15T07:42:11.405Z,1015.42
2018-09-15T07:43:21.131Z,1015.51
2018-09-15T07:44:30.567Z,1015.46
2018-09-15T07:45:40.602Z,1015.44
2018-09-15T07:46:50.562Z,1015.41
2018-09-15T07:48:00.019Z,1015.56
2018-09-15T07:49:09.973Z,1015.47
2018-09-15T07:50:19.926Z,1015.48
2018-09-15T07:51:29.895Z,1015.4
2018-09-15T07:52:40.231Z,1015.49
2018-09-15T07:53:50.180Z,1015.56
2018-09-15T07:55:00.134Z,1015.49
2018-09-15T07:56:10.085Z,1015.57
2018-09-15T07:57:20.129Z,1015.52
2018-09-15T07:58:30.213Z,1015.53
2018-09-15T07:59:40.183Z,1015.5
2018-09-15T08:00:50.133Z,1015.65
2018-09-15T08:02:00.097Z,1015.77
2018-09-15T08:03:10.041Z,1015.75
2018-09-15T08:04:20.006Z,1015.66
2018-09-15T08:05:29.976Z,1015.71
2018-09-15T08:06:39.937Z,1015.69
2018-09-15T08:07:49.897Z,1015.8
2018-09-15T08:08:59.867Z,1015.79
2018-09-15T08:10:09.840Z,1015.84
2018-09-15T08:11:19.800Z,1015.65
2018-09-15T08:12:29.508Z,1015.69
2018-09-15T08:13:39.217Z,1015.72
2018-09-15T08:14:49.184Z,1015.67
2018-09-15T08:15:58.877Z,1015.88
2018-09-15T08:17:08.574Z,1015.79
2018-09-15T08:18:18.555Z,1015.7
2018-09-15T08:19:28.542Z,1015.79
2018-09-15T08:20:38.517Z,1015.84
2018-09-15T08:21:48.205Z,1015.94
2018-09-15T08:22:57.916Z,1015.95
2018-09-15T08:24:07.878Z,1015.78
2018-09-15T08:25:17.834Z,1015.74
2018-09-15T08:26:27.818Z,1015.83
2018-09-15T08:27:38.178Z,1015.78
2018-09-15T08:28:48.278Z,1015.88
2018-09-15T08:29:58.236Z,1015.95
2018-09-15T08:31:07.935Z,1015.82
2018-09-15T08:32:17.901Z,1015.83
2018-09-15T08:33:27.886Z,1015.91
2018-09-15T08:34:37.853Z,1015.87
2018-09-15T08:35:48.018Z,1015.96
2018-09-15T08:36:57.973Z,1016.06
2018-09-15T08:38:07.686Z,1015.99
2018-09-15T08:39:17.162Z,1016.09
2018-09-15T08:40:26.863Z,1016.09
2018-09-15T08:41:36.820Z,1016.1
2018-09-15T08:42:46.525Z,1016.05
2018-09-15T08:43:56.479Z,1016.18
2018-09-15T08:45:06.434Z,1016.22
2018-09-15T08:46:16.397Z,1016.1
2018-09-15T08:47:26.341Z,1016.1
2018-09-15T08:48:36.065Z,1016.18
2018-09-15T08:49:46.034Z,1016.17
2018-09-15T08:50:55.735Z,1016.16
2018-09-15T08:52:05.721Z,1016.2
2018-09-15T08:53:15.420Z,1016
2018-09-15T08:54:24.864Z,1016.13
2018-09-15T08:55:34.553Z,1016.04
2018-09-15T08:56:44.511Z,1016.15
2018-09-15T08:57:53.695Z,1016.05
2018-09-15T08:59:03.407Z,1016.16
2018-09-15T09:00:13.418Z,1016.08
2018-09-15T09:01:23.122Z,1015.99
2018-09-15T09:02:32.822Z,1016.1
2018-09-15T09:03:42.832Z,1016.06
2018-09-15T09:04:53.305Z,1016.11
2018-09-15T09:06:03.288Z,1016.13
2018-09-15T09:07:12.990Z,1016.23
2018-09-15T09:08:22.953Z,1016.07
2018-09-15T09:09:32.681Z,1016.1
2018-09-15T09:10:42.641Z,1015.97
2018-09-15T09:11:52.613Z,1016.06
2018-09-15T09:13:02.587Z,1016.09
2018-09-15T09:14:12.054Z,1016.09
2018-09-15T09:15:22.021Z,1016.07
2018-09-15T09:16:31.725Z,1016.06
2018-09-15T09:17:41.502Z,1016.05
2018-09-15T09:18:51.199Z,1016.11
2018-09-15T09:20:01.246Z,1016.1
2018-09-15T09:21:11.142Z,1016.15
2018-09-15T09:22:21.091Z,1016.1
2018-09-15T09:23:30.819Z,1016.11
2018-09-15T09:24:40.520Z,1016.1
2018-09-15T09:25:50.021Z,1016.09
2018-09-15T09:27:00.582Z,1016.21
2018-09-15T09:28:10.572Z,1016.18
2018-09-15T09:29:20.297Z,1016.13
2018-09-15T09:30:30.033Z,1016.03
2018-09-15T09:31:39.999Z,1016.1
2018-09-15T09:32:49.694Z,1016.06
2018-09-15T09:33:59.397Z,1016.01
2018-09-15T09:35:08.873Z,1016
2018-09-15T09:36:18.593Z,1015.9
2018-09-15T09:37:28.564Z,1015.98
2018-09-15T09:38:38.553Z,1015.97
2018-09-15T09:39:48.275Z,1016.04
2018-09-15T09:40:58.238Z,1015.99
2018-09-15T09:42:08.281Z,1016.1
2018-09-15T09:43:17.929Z,1016.06
2018-09-15T09:44:27.627Z,1016
2018-09-15T09:45:37.606Z,1015.92
2018-09-15T09:46:47.294Z,1016.06
2018-09-15T09:47:57.085Z,1015.92
2018-09-15T09:49:07.148Z,1015.93
2018-09-15T09:50:17.103Z,1015.9
2018-09-15T09:51:27.075Z,1015.85
2018-09-15T09:52:37.040Z,1015.97
2018-09-15T09:53:47.010Z,1015.97
2018-09-15T09:54:56.710Z,1016.03
2018-09-15T09:56:06.671Z,1015.95
2018-09-15T09:57:15.863Z,1016.08
2018-09-15T09:58:25.822Z,1015.97
2018-09-15T09:59:35.793Z,1016.16
2018-09-15T10:00:45.762Z,1016.11
2018-09-15T10:01:55.462Z,1016.04
2018-09-15T10:03:05.430Z,1016.04
2018-09-15T10:04:15.403Z,1016.01
2018-09-15T10:05:25.367Z,1016.05
2018-09-15T10:06:35.340Z,1016.06
2018-09-15T10:07:45.057Z,1016.14
2018-09-15T10:08:54.797Z,1016.02
2018-09-15T10:10:04.612Z,1016.22
2018-09-15T10:11:14.318Z,1016.06
2018-09-15T10:12:24.286Z,1016.16
2018-09-15T10:13:34.274Z,1016.14
2018-09-15T10:14:44.242Z,1016.14
2018-09-15T10:15:54.288Z,1016.11
2018-09-15T10:17:04.623Z,1016.27
2018-09-15T10:18:14.586Z,1016.23
2018-09-15T10:19:24.285Z,1016.25
2018-09-15T10:20:34.001Z,1016.24
2018-09-15T10:21:43.741Z,1016.16
2018-09-15T10:22:53.717Z,1016.08
2018-09-15T10:24:03.690Z,1016.1
2018-09-15T10:25:13.869Z,1016.15
2018-09-15T10:26:23.574Z,1016.09
2018-09-15T10:27:33.553Z,1016.16
2018-09-15T10:28:43.275Z,1016.12
2018-09-15T10:29:52.988Z,1016.19
2018-09-15T10:31:02.954Z,1016.35
2018-09-15T10:32:12.958Z,1016.25
2018-09-15T10:33:22.357Z,1016.29
2018-09-15T10:34:31.788Z,1016.27
2018-09-15T10:35:41.739Z,1016.09
2018-09-15T10:36:51.441Z,1016.11
2018-09-15T10:38:01.419Z,1016.07
2018-09-15T10:39:11.375Z,1016.06
2018-09-15T10:40:21.391Z,1016.13
2018-09-15T10:41:32.176Z,1016.06
2018-09-15T10:42:41.879Z,1016.07
2018-09-15T10:43:51.590Z,1016.05
2018-09-15T10:45:01.299Z,1016.05
2018-09-15T10:46:11.273Z,1016.14
2018-09-15T10:47:20.987Z,1016.14
2018-09-15T10:48:30.967Z,1016.09
2018-09-15T10:49:40.927Z,1016.14
2018-09-15T10:50:50.656Z,1016.03
2018-09-15T10:52:00.360Z,1016.22
2018-09-15T10:53:10.362Z,1015.9
2018-09-15T10:54:20.070Z,1016.07
2018-09-15T10:55:30.028Z,1016.25
2018-09-15T10:56:40.195Z,1016.13
2018-09-15T10:57:49.384Z,1016.22
2018-09-15T10:58:59.357Z,1016.22
2018-09-15T11:00:08.806Z,1016.13
2018-09-15T11:01:18.671Z,1016.13
2018-09-15T11:02:28.652Z,1016.14
2018-09-15T11:03:38.673Z,1016.13
2018-09-15T11:04:48.644Z,1016.04
2018-09-15T11:05:58.433Z,1016.01
2018-09-15T11:07:08.269Z,1016.06
2018-09-15T11:08:18.232Z,1016.24
2018-09-15T11:09:28.202Z,1016.24
2018-09-15T11:10:38.173Z,1016.23
2018-09-15T11:11:47.891Z,1016.17
2018-09-15T11:12:57.592Z,1016.12
2018-09-15T11:14:07.672Z,1016.11
2018-09-15T11:15:17.385Z,1016.2
2018-09-15T11:16:27.354Z,1016.09
2018-09-15T11:17:36.794Z,1016.03
2018-09-15T11:18:46.754Z,1016.14
2018-09-15T11:19:56.721Z,1016.27
2018-09-15T11:21:06.690Z,1016.1
2018-09-15T11:22:16.409Z,1016.36
2018-09-15T11:23:26.766Z,1016.12
2018-09-15T11:24:36.734Z,1016.15
2018-09-15T11:25:46.730Z,1016.13
2018-09-15T11:26:56.698Z,1016.12
2018-09-15T11:28:06.665Z,1016.18
2018-09-15T11:29:16.852Z,1016.31
2018-09-15T11:30:26.840Z,1016.07
2018-09-15T11:31:36.826Z,1016.01
2018-09-15T11:32:46.801Z,1016.12
2018-09-15T11:33:56.565Z,1016.06
2018-09-15T11:35:06.898Z,1015.96
2018-09-15T11:36:16.365Z,1016.02
2018-09-15T11:37:26.344Z,1016.04
2018-09-15T11:38:36.342Z,1016.02
2018-09-15T11:39:46.325Z,1015.88
2018-09-15T11:40:56.310Z,1016
2018-09-15T11:42:06.136Z,1015.89
2018-09-15T11:43:16.099Z,1015.97
2018-09-15T11:44:26.089Z,1015.97
2018-09-15T11:45:36.069Z,1016
2018-09-15T11:46:45.536Z,1016.09
2018-09-15T11:47:55.726Z,1015.97
2018-09-15T11:49:06.317Z,1016.03
2018-09-15T11:50:16.296Z,1016.04
2018-09-15T11:51:26.277Z,1015.96
2018-09-15T11:52:35.998Z,1015.98
2018-09-15T11:53:45.770Z,1016
2018-09-15T11:54:56.180Z,1015.94
2018-09-15T11:56:06.354Z,1015.92
2018-09-15T11:57:16.323Z,1015.95
2018-09-15T11:58:26.297Z,1016.01
2018-09-15T11:59:36.018Z,1015.96
2018-09-15T12:00:45.732Z,1015.96
2018-09-15T12:01:55.200Z,1015.96
2018-09-15T12:03:05.584Z,1016.01
2018-09-15T12:04:15.296Z,1015.88
2018-09-15T12:05:25.276Z,1015.96
2018-09-15T12:06:34.975Z,1015.93
2018-09-15T12:07:44.709Z,1015.93
2018-09-15T12:08:55.046Z,1016.04
2018-09-15T12:10:05.017Z,1015.95
2018-09-15T12:11:14.732Z,1015.89
2018-09-15T12:12:24.458Z,1016.01
2018-09-15T12:13:34.139Z,1015.94
2018-09-15T12:14:44.103Z,1015.87
2018-09-15T12:15:54.264Z,1016.05
2018-09-15T12:17:04.239Z,1016.03
2018-09-15T12:18:14.211Z,1016.05
2018-09-15T12:19:23.911Z,1015.98
2018-09-15T12:20:33.862Z,1015.93
2018-09-15T12:21:43.651Z,1015.98
2018-09-15T12:22:53.735Z,1015.96
2018-09-15T12:24:03.698Z,1016.28
2018-09-15T12:25:13.635Z,1016.02
2018-09-15T12:26:23.607Z,1015.98
2018-09-15T12:27:33.322Z,1016.01
2018-09-15T12:28:43.394Z,1015.95
2018-09-15T12:29:53.118Z,1016.11
2018-09-15T12:31:03.099Z,1016.22
2018-09-15T12:32:13.069Z,1016.02
2018-09-15T12:33:23.046Z,1016.11
2018-09-15T12:34:33.434Z,1016.09
2018-09-15T12:35:43.418Z,1016.07
2018-09-15T12:36:53.405Z,1016.09
2018-09-15T12:38:03.390Z,1016.19
2018-09-15T12:39:13.864Z,1016.14
2018-09-15T12:40:24.060Z,1016.1
2018-09-15T12:41:34.030Z,1016.11
2018-09-15T12:42:44.015Z,1016.09
2018-09-15T12:43:53.987Z,1016.26
2018-09-15T12:45:03.474Z,1016.19
2018-09-15T12:46:14.219Z,1016.08
2018-09-15T12:47:24.191Z,1016.1
2018-09-15T12:48:34.177Z,1016.13
2018-09-15T12:49:44.133Z,1016.09
2018-09-15T12:50:53.580Z,1016.16
2018-09-15T12:52:03.689Z,1016.23
2018-09-15T12:53:13.995Z,1016.02
2018-09-15T12:54:24.025Z,1016.11
2018-09-15T12:55:34.022Z,1016.27
2018-09-15T12:56:43.718Z,1016.38
2018-09-15T12:57:53.742Z,1016.09
2018-09-15T12:59:03.744Z,1016.1
2018-09-15T13:00:13.736Z,1016.23
2018-09-15T13:01:23.743Z,1016.15
2018-09-15T13:02:33.719Z,1016.16
2018-09-15T13:03:43.710Z,1016.11
2018-09-15T13:04:53.424Z,1016.07
2018-09-15T13:06:03.384Z,1016.06
2018-09-15T13:07:13.092Z,1016.15
2018-09-15T13:08:23.128Z,1016.15
2018-09-15T13:09:32.832Z,1016.13
2018-09-15T13:10:42.815Z,1016.22
2018-09-15T13:11:52.256Z,1016.09
2018-09-15T13:13:01.686Z,1016.06
2018-09-15T13:14:11.658Z,1016.17
2018-09-15T13:15:21.775Z,1016.17
2018-09-15T13:16:32.285Z,1016.13
2018-09-15T13:17:41.749Z,1016.17
2018-09-15T13:18:51.709Z,1016.27
2018-09-15T13:20:01.681Z,1016.22
2018-09-15T13:21:11.648Z,1016.23
2018-09-15T13:22:21.606Z,1016.27
2018-09-15T13:23:31.579Z,1016.27
2018-09-15T13:24:41.797Z,1016.24
2018-09-15T13:25:51.754Z,1016.29
2018-09-15T13:27:01.657Z,1016.22
2018-09-15T13:28:11.626Z,1016.31
2018-09-15T13:29:21.621Z,1016.42
2018-09-15T13:30:31.395Z,1016.18
2018-09-15T13:31:41.363Z,1016.31
2018-09-15T13:32:51.084Z,1016.23
2018-09-15T13:34:01.047Z,1016.17
2018-09-15T13:35:11.074Z,1016.25
2018-09-15T13:36:21.032Z,1016.18
2018-09-15T13:37:31.003Z,1016.16
2018-09-15T13:38:40.767Z,1016.43
2018-09-15T13:39:50.463Z,1016.2
2018-09-15T13:41:00.434Z,1016.16
2018-09-15T13:42:10.412Z,1016.18
2018-09-15T13:43:20.423Z,1016.16
2018-09-15T13:44:30.384Z,1016.08
2018-09-15T13:45:40.341Z,1016.18
2018-09-15T13:46:50.145Z,1016.12
2018-09-15T13:48:00.317Z,1016.1
2018-09-15T13:49:10.273Z,1016.15
2018-09-15T13:50:20.243Z,1016.19
2018-09-15T13:51:30.214Z,1016.22
2018-09-15T13:52:40.147Z,1016.19
2018-09-15T13:53:50.103Z,1016.18
2018-09-15T13:55:00.072Z,1016.19
2018-09-15T13:56:10.062Z,1016.19
2018-09-15T13:57:20.031Z,1016.22
2018-09-15T13:58:29.725Z,1016.2
2018-09-15T13:59:39.727Z,1016.19
2018-09-15T14:00:49.179Z,1016.2
2018-09-15T14:01:58.875Z,1016.23
2018-09-15T14:03:08.840Z,1016.28
2018-09-15T14:04:18.782Z,1016.34
2018-09-15T14:05:28.735Z,1016.18
2018-09-15T14:06:38.740Z,1016.21
2018-09-15T14:07:48.731Z,1016.25
2018-09-15T14:08:58.199Z,1016.3